Time;durP1;ratioP1;P1;durP2;ratioP2;P2;SDS_P1;SDS_P2;PMS_P1;PMS_P2;Temp;Humidity;BMP_temperature;BMP_pressure;BME280_temperature;BME280_humidity;BME280_pressure;Samples;Min_cycle;Max_cycle;Signal;HPM_P1;HPM_P2
2023/01/16 00:02:11;;;;;;;;;1.50;0.50;;;;;8.22;70.05;99062.19;5100578;27;46208;-59
2023/01/16 00:04:36;;;;;;;;;1.00;1.00;;;;;8.28;69.92;99055.59;5089574;27;45431;-59
2023/01/16 00:07:02;;;;;;;;;2.00;1.00;;;;;8.27;69.47;99038.84;5078785;27;45228;-62
2023/01/16 00:09:27;;;;;;;;;2.00;0.00;;;;;8.32;70.50;99032.38;5082531;27;45623;-59
2023/01/16 00:11:53;;;;;;;;;0.50;0.00;;;;;8.29;70.00;99031.63;5098866;27;46072;-58
2023/01/16 00:14:18;;;;;;;;;2.00;0.00;;;;;8.20;70.28;99007.59;5087407;27;45418;-60
2023/01/16 00:16:43;;;;;;;;;2.75;1.00;;;;;8.21;70.06;98991.63;5078977;27;45365;-60
2023/01/16 00:19:09;;;;;;;;;0.00;0.00;;;;;8.16;70.05;98977.84;5086169;27;45472;-58
2023/01/16 00:21:34;;;;;;;;;0.00;0.00;;;;;8.23;69.94;98984.41;5092454;27;45439;-62
2023/01/16 00:24:00;;;;;;;;;0.75;0.75;;;;;8.22;70.49;98950.94;5096223;27;45452;-57
2023/01/16 00:26:27;;;;;;;;;1.50;0.00;;;;;8.26;70.15;98935.66;5077582;27;45696;-59
2023/01/16 00:28:53;;;;;;;;;0.75;0.75;;;;;8.19;71.14;98903.47;5092728;27;45344;-60
2023/01/16 00:31:19;;;;;;;;;1.75;0.00;;;;;8.23;71.29;98898.81;5098737;27;45292;-59
2023/01/16 00:33:45;;;;;;;;;1.00;1.00;;;;;8.20;71.10;98884.00;5097525;27;45494;-57
2023/01/16 00:36:11;;;;;;;;;1.50;0.00;;;;;8.25;71.17;98871.28;5103013;27;45245;-58
2023/01/16 00:38:37;;;;;;;;;1.00;0.00;;;;;8.27;70.78;98847.31;5083304;27;45291;-58
2023/01/16 00:41:03;;;;;;;;;0.00;0.00;;;;;8.22;71.19;98823.84;5110660;27;45989;-60
2023/01/16 00:43:28;;;;;;;;;0.00;0.00;;;;;8.25;71.61;98826.25;5096292;27;45846;-58
2023/01/16 00:45:54;;;;;;;;;1.00;0.00;;;;;8.25;71.05;98806.88;5098634;27;45370;-58
2023/01/16 00:48:19;;;;;;;;;5.00;1.00;;;;;8.22;70.49;98780.63;5084940;27;45787;-57
2023/01/16 00:50:45;;;;;;;;;1.25;0.75;;;;;8.26;70.41;98761.72;5077745;27;45483;-58
2023/01/16 00:53:10;;;;;;;;;2.00;0.00;;;;;8.29;70.91;98766.78;5091528;27;45435;-59
2023/01/16 00:55:36;;;;;;;;;1.75;1.00;;;;;8.29;70.82;98739.47;5098026;27;45275;-58
2023/01/16 00:58:04;;;;;;;;;2.25;0.00;;;;;8.29;69.87;98736.81;5093175;27;45373;-59
2023/01/16 01:00:29;;;;;;;;;0.75;0.75;;;;;8.23;70.48;98714.28;5077931;27;45548;-60
2023/01/16 01:02:55;;;;;;;;;1.50;0.00;;;;;8.22;70.24;98701.19;5077818;27;45532;-62
2023/01/16 01:05:20;;;;;;;;;2.50;0.50;;;;;8.19;70.40;98681.03;5089570;27;45280;-62
2023/01/16 01:07:46;;;;;;;;;0.00;0.00;;;;;8.18;70.90;98655.53;5084043;27;45542;-60
2023/01/16 01:10:11;;;;;;;;;0.00;0.00;;;;;8.23;70.45;98639.31;5081100;27;47302;-61
2023/01/16 01:12:37;;;;;;;;;4.25;0.50;;;;;8.28;70.52;98645.91;5078224;27;45315;-60
2023/01/16 01:15:02;;;;;;;;;0.00;0.00;;;;;8.24;69.92;98630.41;5078015;27;45427;-65
2023/01/16 01:17:28;;;;;;;;;0.00;0.00;;;;;8.26;70.66;98615.22;5059131;28;45454;-61
2023/01/16 01:19:53;;;;;;;;;0.00;0.00;;;;;8.26;70.57;98608.13;5081527;27;47333;-59
2023/01/16 01:22:19;;;;;;;;;0.50;0.00;;;;;8.27;70.18;98591.28;5085550;27;45316;-63
2023/01/16 01:24:49;;;;;;;;;1.50;0.00;;;;;8.28;70.44;98561.19;5080950;27;45439;-58
2023/01/16 01:27:17;;;;;;;;;0.00;0.00;;;;;8.23;70.87;98528.94;5096841;27;45384;-57
2023/01/16 01:29:43;;;;;;;;;0.50;0.00;;;;;8.29;69.85;98517.00;5112224;27;46089;-58
2023/01/16 01:32:09;;;;;;;;;0.00;0.00;;;;;8.29;70.68;98515.19;5078755;27;45361;-58
2023/01/16 01:34:34;;;;;;;;;0.00;0.00;;;;;8.32;70.09;98494.72;5113592;27;45415;-59
2023/01/16 01:37:07;;;;;;;;;1.00;1.00;;;;;8.29;70.01;98469.31;5084753;27;45446;-58
2023/01/16 01:39:32;;;;;;;;;0.00;0.00;;;;;8.23;70.34;98444.19;5094495;27;45369;-57
2023/01/16 01:45:05;;;;;;;;;0.00;0.00;;;;;8.33;70.71;98427.53;5097457;27;45213;-57
2023/01/16 01:47:36;;;;;;;;;2.50;0.00;;;;;8.15;70.61;98385.72;5101943;27;45619;-58
2023/01/16 01:50:10;;;;;;;;;0.00;0.00;;;;;8.32;71.27;98404.69;5094916;27;46303;-58
2023/01/16 01:52:36;;;;;;;;;2.50;0.00;;;;;8.26;72.02;98375.09;5086348;27;45389;-60
2023/01/16 01:55:05;;;;;;;;;0.00;0.00;;;;;8.20;73.13;98357.06;5070456;27;45440;-61
2023/01/16 01:57:42;;;;;;;;;1.00;1.00;;;;;8.18;72.94;98345.75;5087791;27;45588;-56
2023/01/16 02:00:19;;;;;;;;;2.00;1.00;;;;;8.13;74.23;98325.91;5096555;27;46436;-58
2023/01/16 02:02:59;;;;;;;;;2.00;0.00;;;;;8.15;74.50;98310.75;5092525;27;45285;-59
2023/01/16 02:05:34;;;;;;;;;1.00;0.00;;;;;8.09;75.10;98304.16;5077599;27;45428;-63
2023/01/16 02:08:02;;;;;;;;;4.50;0.00;;;;;8.07;75.13;98287.53;5080775;27;45476;-57
2023/01/16 02:10:34;;;;;;;;;2.50;0.50;;;;;7.93;75.93;98272.78;5103932;27;45493;-58
2023/01/16 02:13:01;;;;;;;;;0.00;0.00;;;;;7.91;77.21;98263.31;5081826;27;45940;-58
2023/01/16 02:15:27;;;;;;;;;1.00;0.00;;;;;7.89;77.67;98254.66;5097138;27;45271;-60
2023/01/16 02:20:50;;;;;;;;;1.00;0.00;;;;;7.76;78.81;98228.34;5096715;27;45320;-59
2023/01/16 02:23:40;;;;;;;;;2.50;1.00;;;;;7.71;78.91;98209.38;5097615;27;45404;-58
2023/01/16 02:26:06;;;;;;;;;0.50;0.50;;;;;7.66;80.46;98203.63;5097201;27;45450;-62
2023/01/16 02:28:46;;;;;;;;;1.75;1.75;;;;;7.59;87.39;98210.38;5096026;27;45306;-58
2023/01/16 02:31:32;;;;;;;;;1.00;0.00;;;;;7.50;85.02;98174.09;5092492;27;45417;-59
2023/01/16 02:34:27;;;;;;;;;0.00;0.00;;;;;7.33;83.71;98147.25;5088873;27;45493;-60
2023/01/16 02:37:07;;;;;;;;;1.00;1.00;;;;;7.31;82.01;98156.28;5110087;27;45417;-62
2023/01/16 02:39:38;;;;;;;;;3.25;1.00;;;;;7.28;83.15;98130.06;5097135;27;45321;-59
2023/01/16 02:42:56;;;;;;;;;0.25;0.00;;;;;7.23;81.73;98129.59;5080285;27;45336;-61
2023/01/16 02:45:58;;;;;;;;;0.00;0.00;;;;;7.15;81.91;98116.16;5033705;28;45519;-61
2023/01/16 02:48:49;;;;;;;;;0.00;0.00;;;;;7.12;83.92;98085.53;5033832;28;45407;-59
2023/01/16 02:51:27;;;;;;;;;1.75;0.50;;;;;7.09;82.82;98091.91;5077482;27;45512;-59
2023/01/16 02:54:14;;;;;;;;;2.00;0.00;;;;;7.10;82.96;98080.38;5076414;27;46205;-61
2023/01/16 02:56:45;;;;;;;;;0.00;0.00;;;;;7.05;82.70;98074.66;5074975;27;45536;-61
2023/01/16 02:59:14;;;;;;;;;4.25;0.00;;;;;7.01;84.01;98053.84;5093511;27;45502;-59
2023/01/16 03:01:40;;;;;;;;;0.00;0.00;;;;;6.99;85.09;98043.41;5109414;27;45290;-59
2023/01/16 03:04:38;;;;;;;;;3.00;0.00;;;;;6.98;84.76;98040.91;5088774;27;47042;-60
2023/01/16 03:07:29;;;;;;;;;1.00;0.25;;;;;7.03;83.98;98029.00;5074601;27;45377;-60
2023/01/16 03:10:11;;;;;;;;;0.00;0.00;;;;;7.05;83.06;98024.44;5076244;28;45378;-59
2023/01/16 03:13:08;;;;;;;;;4.50;0.00;;;;;7.03;83.20;98007.88;5076443;27;45269;-59
2023/01/16 03:15:54;;;;;;;;;0.00;0.00;;;;;6.99;83.45;97995.03;5075910;27;46268;-59
2023/01/16 03:18:52;;;;;;;;;1.00;0.00;;;;;6.96;83.41;97984.72;5075983;27;45409;-59
2023/01/16 03:21:26;;;;;;;;;0.00;0.00;;;;;6.99;83.56;97981.81;5082252;27;45459;-60
2023/01/16 03:24:03;;;;;;;;;0.00;0.00;;;;;6.92;84.43;98000.00;5076947;27;45372;-57
2023/01/16 03:26:41;;;;;;;;;0.25;0.00;;;;;6.90;84.46;97959.66;5075642;27;45241;-58
2023/01/16 03:29:18;;;;;;;;;0.00;0.00;;;;;6.85;84.89;97961.81;5075179;27;45209;-59
2023/01/16 03:32:02;;;;;;;;;0.00;0.00;;;;;6.78;85.52;97950.94;5074831;28;45470;-61
2023/01/16 03:34:54;;;;;;;;;0.00;0.00;;;;;6.73;84.82;97931.13;5075855;27;45982;-60
2023/01/16 03:37:44;;;;;;;;;0.00;0.00;;;;;6.75;85.75;97945.88;5078667;27;45346;-58
2023/01/16 03:40:13;;;;;;;;;0.00;0.00;;;;;6.73;85.67;97957.53;5090596;27;45262;-59
2023/01/16 03:42:45;;;;;;;;;0.00;0.00;;;;;6.70;85.33;97936.66;5079982;27;45316;-59
2023/01/16 03:45:19;;;;;;;;;0.00;0.00;;;;;6.73;85.51;97904.72;5079775;27;45399;-57
2023/01/16 03:48:12;;;;;;;;;0.00;0.00;;;;;6.76;84.49;97912.38;5099771;27;46580;-59
2023/01/16 03:50:42;;;;;;;;;0.00;0.00;;;;;6.72;84.76;97903.03;5088552;27;46243;-59
2023/01/16 03:53:11;;;;;;;;;0.00;0.00;;;;;6.77;84.61;97875.31;5094398;27;45387;-58
2023/01/16 03:56:06;;;;;;;;;0.00;0.00;;;;;6.77;84.71;97843.59;5097190;27;45391;-58
2023/01/16 03:58:36;;;;;;;;;0.00;0.00;;;;;6.78;83.55;97862.94;5079664;27;46069;-58
2023/01/16 04:01:13;;;;;;;;;0.00;0.00;;;;;6.73;83.60;97849.25;5079189;27;45384;-58
2023/01/16 04:03:51;;;;;;;;;0.00;0.00;;;;;6.69;82.51;97866.34;5078971;27;45238;-59
2023/01/16 04:06:31;;;;;;;;;0.00;0.00;;;;;6.72;83.20;97861.63;5095133;27;45268;-59
2023/01/16 04:09:01;;;;;;;;;0.00;0.00;;;;;6.74;83.19;97853.56;5089168;27;46520;-58
2023/01/16 04:11:26;;;;;;;;;0.00;0.00;;;;;6.75;83.05;97860.53;5098615;27;45532;-60
2023/01/16 04:13:56;;;;;;;;;0.00;0.00;;;;;6.74;82.03;97845.63;5098550;27;45264;-60
2023/01/16 04:16:23;;;;;;;;;0.00;0.00;;;;;6.74;82.80;97828.00;5079621;27;45532;-59
2023/01/16 04:18:53;;;;;;;;;0.00;0.00;;;;;6.76;81.08;97830.50;5109070;27;45508;-61
2023/01/16 04:21:18;;;;;;;;;0.00;0.00;;;;;6.72;81.34;97808.81;5100597;27;45330;-60
2023/01/16 04:23:44;;;;;;;;;0.00;0.00;;;;;6.53;80.65;97784.09;5089845;27;45396;-60
2023/01/16 04:26:09;;;;;;;;;0.00;0.00;;;;;6.63;80.62;97792.88;5095910;27;45480;-59
2023/01/16 04:28:35;;;;;;;;;0.00;0.00;;;;;6.75;81.35;97799.78;5091358;27;46318;-59
2023/01/16 04:31:00;;;;;;;;;0.00;0.00;;;;;6.70;81.76;97799.34;5077521;27;45564;-58
2023/01/16 04:33:26;;;;;;;;;0.00;0.00;;;;;6.75;80.87;97797.13;5080419;27;45827;-60
2023/01/16 04:35:51;;;;;;;;;0.00;0.00;;;;;6.70;79.05;97772.94;5099248;27;45590;-58
2023/01/16 04:38:16;;;;;;;;;0.00;0.00;;;;;6.71;79.84;97764.03;5115741;27;46270;-58
2023/01/16 04:40:42;;;;;;;;;0.00;0.00;;;;;6.72;80.16;97776.28;5094349;27;45461;-60
2023/01/16 04:43:07;;;;;;;;;0.00;0.00;;;;;6.66;79.27;97755.69;5115068;27;45248;-58
2023/01/16 04:45:33;;;;;;;;;0.00;0.00;;;;;6.71;79.44;97764.88;5091648;27;45537;-57
2023/01/16 04:47:59;;;;;;;;;0.00;0.00;;;;;6.71;79.21;97754.31;5098451;27;46291;-58
2023/01/16 04:50:24;;;;;;;;;0.00;0.00;;;;;6.72;80.14;97731.38;5092824;27;45266;-59
2023/01/16 04:52:50;;;;;;;;;0.00;0.00;;;;;6.80;79.27;97732.41;5099252;27;45307;-59
2023/01/16 04:55:15;;;;;;;;;0.00;0.00;;;;;6.78;80.62;97718.50;5097729;27;45560;-57
2023/01/16 04:57:41;;;;;;;;;0.00;0.00;;;;;6.74;80.77;97684.53;5098279;27;45528;-60
2023/01/16 05:00:09;;;;;;;;;0.00;0.00;;;;;6.53;82.77;97649.44;5085890;27;45773;-58
2023/01/16 05:02:35;;;;;;;;;0.00;0.00;;;;;6.64;83.72;97651.97;5078154;27;45562;-59
2023/01/16 05:05:00;;;;;;;;;0.00;0.00;;;;;6.57;86.65;97641.09;5093518;27;45369;-59
2023/01/16 05:07:27;;;;;;;;;0.00;0.00;;;;;6.80;87.18;97668.16;5091456;27;45374;-61
2023/01/16 05:09:52;;;;;;;;;0.00;0.00;;;;;6.82;85.68;97645.09;5096404;27;45349;-57
2023/01/16 05:12:18;;;;;;;;;0.25;0.00;;;;;6.79;85.46;97640.91;5095589;27;46008;-58
2023/01/16 05:14:44;;;;;;;;;0.00;0.00;;;;;6.87;85.41;97636.75;5114661;27;46173;-58
2023/01/16 05:17:09;;;;;;;;;0.00;0.00;;;;;6.94;83.30;97628.16;5086675;27;45447;-58
2023/01/16 05:19:34;;;;;;;;;0.00;0.00;;;;;6.94;83.30;97595.63;5080575;27;45377;-58
2023/01/16 05:22:00;;;;;;;;;1.00;0.00;;;;;7.00;83.49;97587.97;5087118;27;45479;-57
2023/01/16 05:24:25;;;;;;;;;1.00;0.00;;;;;7.03;83.30;97579.78;5078641;27;45315;-58
2023/01/16 05:26:51;;;;;;;;;0.00;0.00;;;;;6.97;83.72;97553.06;5078027;27;45385;-58
2023/01/16 05:29:16;;;;;;;;;0.00;0.00;;;;;7.06;83.34;97563.66;5078060;27;45234;-58
2023/01/16 05:31:42;;;;;;;;;0.00;0.00;;;;;7.11;83.04;97560.59;5078716;27;45516;-58
2023/01/16 05:34:09;;;;;;;;;0.00;0.00;;;;;7.16;83.02;97539.88;5098202;27;45254;-60
2023/01/16 05:36:34;;;;;;;;;0.00;0.00;;;;;7.16;81.53;97542.53;5083550;27;46134;-58
2023/01/16 05:39:00;;;;;;;;;4.75;0.00;;;;;7.26;81.42;97538.06;5077261;27;45468;-58
2023/01/16 05:41:26;;;;;;;;;0.00;0.00;;;;;7.36;81.38;97522.19;5090745;27;45470;-57
2023/01/16 05:43:51;;;;;;;;;0.50;0.00;;;;;7.33;81.08;97511.91;5091834;27;45430;-58
2023/01/16 05:46:17;;;;;;;;;1.00;0.00;;;;;7.42;81.00;97510.22;5097545;27;46245;-57
2023/01/16 05:48:43;;;;;;;;;1.00;0.00;;;;;7.40;81.51;97511.19;5088030;27;45399;-57
2023/01/16 05:51:08;;;;;;;;;0.00;0.00;;;;;7.43;80.65;97502.16;5093335;27;45382;-58
2023/01/16 05:53:34;;;;;;;;;1.50;0.00;;;;;7.45;79.87;97505.50;5078899;27;45294;-57
2023/01/16 05:56:06;;;;;;;;;1.00;0.00;;;;;7.49;80.42;97496.28;5096351;27;46624;-57
2023/01/16 05:58:32;;;;;;;;;0.50;0.00;;;;;7.57;79.63;97503.53;5094685;27;45326;-59
2023/01/16 06:01:00;;;;;;;;;0.00;0.00;;;;;7.52;77.89;97480.13;5090189;27;45322;-58
2023/01/16 06:03:26;;;;;;;;;0.00;0.00;;;;;7.56;78.47;97478.91;5096532;27;45579;-58
2023/01/16 06:05:52;;;;;;;;;0.00;0.00;;;;;7.62;78.83;97475.66;5077321;27;45261;-57
2023/01/16 06:08:17;;;;;;;;;0.00;0.00;;;;;7.60;77.47;97474.97;5077226;28;45258;-58
2023/01/16 06:10:44;;;;;;;;;1.00;0.00;;;;;7.63;76.56;97479.97;5085287;27;45270;-58
2023/01/16 06:13:10;;;;;;;;;0.00;0.00;;;;;7.66;78.01;97461.16;5100950;27;45557;-58
2023/01/16 06:15:35;;;;;;;;;1.25;0.00;;;;;7.54;77.14;97451.75;5094602;27;45809;-58
2023/01/16 06:18:04;;;;;;;;;0.25;0.00;;;;;7.65;77.73;97446.28;5085208;27;45424;-60
2023/01/16 06:20:29;;;;;;;;;1.75;0.00;;;;;7.69;75.99;97452.97;5117503;27;45485;-59
2023/01/16 06:22:55;;;;;;;;;0.00;0.00;;;;;7.69;76.04;97460.06;5083312;27;45311;-59
2023/01/16 06:25:20;;;;;;;;;0.50;0.50;;;;;7.73;77.49;97444.75;5077305;27;47215;-59
2023/01/16 06:27:50;;;;;;;;;0.00;0.00;;;;;7.72;76.43;97441.25;5089909;27;45419;-57
2023/01/16 06:30:16;;;;;;;;;1.00;0.00;;;;;7.65;77.30;97432.22;5079258;27;45705;-57
2023/01/16 06:32:41;;;;;;;;;0.00;0.00;;;;;7.65;77.78;97435.69;5093108;27;45581;-58
2023/01/16 06:35:07;;;;;;;;;0.75;0.75;;;;;7.67;78.04;97439.03;5082058;27;45474;-59
2023/01/16 06:37:32;;;;;;;;;0.00;0.00;;;;;7.61;77.36;97429.03;5091127;27;45522;-58
2023/01/16 06:39:59;;;;;;;;;1.00;0.00;;;;;7.63;78.19;97439.47;5097401;27;45307;-64
2023/01/16 06:42:25;;;;;;;;;2.00;0.00;;;;;7.54;77.67;97425.28;5096455;27;45214;-58
2023/01/16 06:44:50;;;;;;;;;0.00;0.00;;;;;7.58;78.16;97426.69;5085935;27;45979;-57
2023/01/16 06:47:16;;;;;;;;;0.50;0.00;;;;;7.53;78.81;97434.19;5076083;27;45168;-58
2023/01/16 06:49:41;;;;;;;;;1.00;0.00;;;;;7.51;79.09;97420.31;5095486;27;45320;-62
2023/01/16 06:52:07;;;;;;;;;0.00;0.00;;;;;7.52;78.64;97399.97;5087914;27;45552;-60
2023/01/16 06:54:32;;;;;;;;;1.00;0.00;;;;;7.47;79.28;97386.38;5082823;27;45701;-60
2023/01/16 06:56:58;;;;;;;;;0.00;0.00;;;;;7.51;79.09;97396.50;5095061;27;45228;-63
2023/01/16 06:59:23;;;;;;;;;3.00;0.00;;;;;7.54;78.21;97398.84;5082357;27;45470;-62
2023/01/16 07:01:48;;;;;;;;;0.00;0.00;;;;;7.55;78.57;97376.75;5094708;27;45654;-61
2023/01/16 07:04:14;;;;;;;;;0.00;0.00;;;;;7.58;77.79;97357.94;5092793;27;45544;-64
2023/01/16 07:06:41;;;;;;;;;1.00;0.00;;;;;7.59;77.38;97364.06;5076679;27;45559;-60
2023/01/16 07:09:07;;;;;;;;;0.00;0.00;;;;;7.60;77.58;97363.06;5091692;27;45290;-60
2023/01/16 07:11:32;;;;;;;;;2.00;0.25;;;;;7.62;78.15;97348.72;5075685;27;45415;-58
2023/01/16 07:24:58;;;;;;;;;0.00;0.00;;;;;7.52;78.13;97310.06;5086962;27;46539;-58
2023/01/16 07:27:24;;;;;;;;;0.00;0.00;;;;;7.61;78.57;97304.75;5093198;27;45448;-57
2023/01/16 07:29:50;;;;;;;;;0.00;0.00;;;;;7.58;77.33;97293.63;5082355;27;45428;-55
2023/01/16 07:32:15;;;;;;;;;0.00;0.00;;;;;7.59;78.93;97280.25;5084255;27;45493;-56
2023/01/16 07:34:41;;;;;;;;;0.00;0.00;;;;;7.64;78.01;97282.44;5080559;27;46144;-57
2023/01/16 07:37:10;;;;;;;;;0.00;0.00;;;;;7.68;78.26;97281.16;5081342;27;45515;-57
2023/01/16 07:39:36;;;;;;;;;0.50;0.00;;;;;7.62;78.49;97257.97;5089154;27;45538;-57
2023/01/16 07:42:07;;;;;;;;;0.00;0.00;;;;;7.64;78.32;97256.84;5097343;27;46304;-58
2023/01/16 07:44:33;;;;;;;;;2.00;1.00;;;;;7.61;77.91;97241.28;5092923;27;45492;-58
2023/01/16 07:46:58;;;;;;;;;0.00;0.00;;;;;7.67;79.01;97266.28;5096823;27;45229;-56
2023/01/16 07:49:24;;;;;;;;;0.00;0.00;;;;;7.50;78.83;97217.69;5093474;27;45262;-56
2023/01/16 07:51:49;;;;;;;;;0.00;0.00;;;;;7.65;78.93;97232.06;5079133;27;45397;-58
2023/01/16 07:54:15;;;;;;;;;0.00;0.00;;;;;7.67;79.50;97238.00;5096050;27;46471;-57
2023/01/16 07:56:40;;;;;;;;;0.00;0.00;;;;;7.59;78.56;97219.44;5095411;27;45443;-56
2023/01/16 07:59:06;;;;;;;;;0.00;0.00;;;;;7.43;78.99;97165.56;5098251;27;45436;-57
2023/01/16 08:01:32;;;;;;;;;2.00;0.00;;;;;7.62;79.52;97200.63;5099758;27;45651;-55
2023/01/16 08:03:58;;;;;;;;;0.00;0.00;;;;;7.61;79.84;97203.41;5089390;27;45604;-59
2023/01/16 08:06:23;;;;;;;;;0.50;0.00;;;;;7.54;79.11;97195.25;5078733;27;45735;-56
2023/01/16 08:08:48;;;;;;;;;0.00;0.00;;;;;7.46;79.62;97183.78;5089399;27;45762;-56
2023/01/16 08:11:35;;;;;;;;;0.00;0.00;;;;;7.49;79.79;97176.34;5092975;27;45494;-57
2023/01/16 08:14:00;;;;;;;;;0.75;0.00;;;;;7.47;80.44;97178.31;5078914;27;45455;-56
2023/01/16 08:16:25;;;;;;;;;0.00;0.00;;;;;7.48;79.83;97166.78;5092017;27;45372;-58
2023/01/16 08:18:50;;;;;;;;;0.00;0.00;;;;;7.47;80.27;97162.47;5099107;27;45339;-56
2023/01/16 08:21:17;;;;;;;;;0.00;0.00;;;;;7.46;81.05;97160.81;5093638;27;45527;-58
2023/01/16 08:23:43;;;;;;;;;0.00;0.00;;;;;7.36;79.84;97138.88;5098728;27;46206;-57
2023/01/16 08:26:09;;;;;;;;;0.00;0.00;;;;;7.38;80.90;97139.56;5088084;27;45462;-56
2023/01/16 08:28:37;;;;;;;;;0.00;0.00;;;;;7.32;80.40;97134.88;5084586;27;45479;-51
2023/01/16 08:31:07;;;;;;;;;0.00;0.00;;;;;7.28;79.64;97107.06;5078868;27;45471;-56
2023/01/16 08:33:35;;;;;;;;;0.00;0.00;;;;;7.19;79.29;97102.72;5076847;27;45569;-56
2023/01/16 08:36:02;;;;;;;;;0.00;0.00;;;;;7.26;79.44;97111.69;5083842;27;45510;-51
2023/01/16 08:38:27;;;;;;;;;1.00;0.00;;;;;7.20;76.41;97099.09;5100490;27;46396;-56
2023/01/16 08:40:52;;;;;;;;;0.00;0.00;;;;;7.22;77.87;97118.25;5085416;27;45846;-56
2023/01/16 08:51:32;;;;;;;;;0.50;0.00;;;;;6.95;77.02;97119.97;5079050;27;45386;-53
2023/01/16 08:53:58;;;;;;;;;0.00;0.00;;;;;6.87;75.17;97127.78;5086742;27;45424;-55
2023/01/16 08:56:23;;;;;;;;;0.00;0.00;;;;;6.88;75.23;97129.44;5097981;27;45435;-55
2023/01/16 08:58:49;;;;;;;;;0.00;0.00;;;;;6.90;75.89;97148.63;5095351;27;45314;-55
2023/01/16 09:01:15;;;;;;;;;0.00;0.00;;;;;6.83;74.99;97134.34;5093882;27;46696;-56
2023/01/16 09:03:41;;;;;;;;;0.00;0.00;;;;;6.82;75.42;97142.41;5113116;27;46231;-57
2023/01/16 09:06:07;;;;;;;;;0.00;0.00;;;;;6.77;74.54;97145.47;5102021;27;45367;-53
2023/01/16 09:08:32;;;;;;;;;0.00;0.00;;;;;6.86;75.40;97162.25;5093224;27;45681;-54
2023/01/16 09:13:50;;;;;;;;;0.00;0.00;;;;;6.85;76.00;97173.81;5106185;27;45993;-57
2023/01/16 09:16:17;;;;;;;;;0.25;0.00;;;;;6.86;76.23;97176.31;5085403;27;45342;-57
2023/01/16 09:18:42;;;;;;;;;0.00;0.00;;;;;6.84;75.51;97180.06;5081389;27;45273;-56
2023/01/16 09:21:08;;;;;;;;;0.00;0.00;;;;;6.77;75.76;97191.22;5090052;27;45336;-57
2023/01/16 09:23:33;;;;;;;;;0.00;0.00;;;;;6.74;76.28;97206.50;5106010;27;46248;-59
2023/01/16 09:25:58;;;;;;;;;0.00;0.00;;;;;6.76;75.72;97212.47;5092902;27;45255;-56
2023/01/16 09:28:24;;;;;;;;;1.00;0.00;;;;;6.73;76.68;97212.78;5080667;27;45481;-56
2023/01/16 09:30:51;;;;;;;;;0.00;0.00;;;;;6.70;76.52;97213.06;5096166;27;45337;-56
2023/01/16 09:33:16;;;;;;;;;0.00;0.00;;;;;6.62;76.93;97229.63;5084279;27;46326;-60
2023/01/16 09:35:42;;;;;;;;;0.00;0.00;;;;;6.57;76.96;97228.41;5077257;27;45417;-55
2023/01/16 09:38:07;;;;;;;;;0.00;0.00;;;;;6.48;76.69;97240.63;5078350;27;45414;-53
2023/01/16 09:40:33;;;;;;;;;1.00;0.00;;;;;6.38;77.18;97250.38;5095919;27;45527;-55
2023/01/16 09:43:35;;;;;;;;;0.00;0.00;;;;;6.44;76.86;97255.94;5075759;27;46149;-54
2023/01/16 09:46:16;;;;;;;;;2.00;0.00;;;;;6.52;77.46;97279.00;5085068;27;45493;-56
2023/01/16 09:48:44;;;;;;;;;0.00;0.00;;;;;6.50;76.74;97287.03;5091969;27;45289;-55
2023/01/16 09:51:39;;;;;;;;;0.00;0.00;;;;;6.47;76.85;97284.69;5097203;27;45366;-57
2023/01/16 09:59:54;;;;;;;;;0.00;0.00;;;;;6.38;77.55;97304.03;5076499;27;45433;-56
2023/01/16 10:02:32;;;;;;;;;0.00;0.00;;;;;6.57;78.21;97334.00;5076911;27;45623;-58
2023/01/16 10:04:59;;;;;;;;;0.00;0.00;;;;;6.65;78.75;97334.97;5075313;27;45444;-61
2023/01/16 10:07:54;;;;;;;;;0.00;0.00;;;;;6.71;78.36;97336.22;5084213;27;45550;-58
2023/01/16 10:10:20;;;;;;;;;0.00;0.00;;;;;6.79;78.48;97349.56;5094996;27;45391;-57
2023/01/16 10:13:11;;;;;;;;;0.50;0.50;;;;;6.81;78.05;97358.16;5089564;27;45638;-59
2023/01/16 10:15:47;;;;;;;;;1.00;0.00;;;;;6.89;78.52;97382.03;5079553;27;45598;-60
2023/01/16 10:18:27;;;;;;;;;0.00;0.00;;;;;6.85;78.39;97378.03;5112980;27;45385;-63
2023/01/16 10:21:00;;;;;;;;;0.00;0.00;;;;;6.94;77.80;97390.41;5090760;27;45422;-59
2023/01/16 10:23:47;;;;;;;;;0.50;0.50;;;;;6.98;79.17;97402.34;5093210;27;45410;-58
2023/01/16 10:26:18;;;;;;;;;0.50;0.00;;;;;6.99;79.51;97414.56;5082204;27;45538;-57
2023/01/16 10:28:52;;;;;;;;;0.00;0.00;;;;;6.96;80.22;97412.22;5076623;27;45443;-58
2023/01/16 10:31:33;;;;;;;;;0.25;0.25;;;;;6.91;81.41;97432.94;5081112;27;45432;-60
2023/01/16 10:34:17;;;;;;;;;3.50;2.00;;;;;6.90;81.55;97431.28;5079846;27;45550;-60
2023/01/16 10:36:48;;;;;;;;;2.00;2.00;;;;;6.86;81.50;97440.44;5086095;27;46281;-60
2023/01/16 10:39:16;;;;;;;;;2.00;2.00;;;;;6.86;80.87;97450.19;5084013;27;45452;-59
2023/01/16 10:50:10;;;;;;;;;0.00;0.00;;;;;6.85;79.86;97510.09;5096812;27;45439;-58
2023/01/16 10:52:37;;;;;;;;;1.50;0.00;;;;;6.82;79.05;97504.25;5094661;27;45631;-58
2023/01/16 10:55:04;;;;;;;;;0.00;0.00;;;;;6.89;78.08;97522.03;5092928;27;45743;-58
2023/01/16 10:57:29;;;;;;;;;0.00;0.00;;;;;6.92;76.81;97524.44;5093211;27;46199;-57
2023/01/16 11:00:05;;;;;;;;;0.00;0.00;;;;;6.96;76.90;97536.38;5094066;27;45413;-59
2023/01/16 11:02:37;;;;;;;;;1.00;0.00;;;;;6.94;76.35;97546.25;5095042;27;45389;-58
2023/01/16 11:05:24;;;;;;;;;0.00;0.00;;;;;6.88;76.62;97553.88;5078059;27;45480;-58
2023/01/16 11:07:53;;;;;;;;;0.00;0.00;;;;;6.85;77.45;97565.56;5074520;27;45975;-57
2023/01/16 11:10:18;;;;;;;;;0.00;0.00;;;;;6.78;77.45;97586.44;5095035;27;45311;-58
2023/01/16 11:18:33;;;;;;;;;0.00;0.00;;;;;6.64;79.04;97621.13;5075204;28;45362;-57
2023/01/16 11:21:16;;;;;;;;;0.00;0.00;;;;;6.60;78.36;97632.06;5093421;27;45302;-58
2023/01/16 11:23:44;;;;;;;;;0.00;0.00;;;;;6.61;79.77;97644.31;5096815;27;45337;-57
2023/01/16 11:26:11;;;;;;;;;0.75;0.00;;;;;6.50;79.80;97621.47;5081884;27;45775;-57
2023/01/16 11:28:37;;;;;;;;;0.00;0.00;;;;;6.56;80.32;97651.81;5075749;27;47438;-58
2023/01/16 11:31:14;;;;;;;;;0.00;0.00;;;;;6.49;80.32;97644.41;5078651;27;45746;-57
2023/01/16 11:34:08;;;;;;;;;0.00;0.00;;;;;6.59;79.78;97660.28;5074401;27;45342;-57
2023/01/16 11:36:34;;;;;;;;;1.00;0.00;;;;;6.68;79.92;97674.50;5073775;27;45512;-58
2023/01/16 11:39:01;;;;;;;;;0.00;0.00;;;;;6.63;80.00;97651.13;5075764;27;46048;-58
2023/01/16 11:41:35;;;;;;;;;1.00;1.00;;;;;6.75;79.63;97683.56;5081772;27;45471;-58
2023/01/16 11:46:58;;;;;;;;;0.00;0.00;;;;;6.83;79.62;97688.19;5088286;27;45321;-58
2023/01/16 11:49:34;;;;;;;;;0.00;0.00;;;;;6.85;79.93;97705.56;5075387;27;46706;-59
2023/01/16 11:52:03;;;;;;;;;1.00;0.00;;;;;6.88;79.19;97707.09;5078705;27;45165;-60
2023/01/16 11:54:31;;;;;;;;;0.00;0.00;;;;;6.90;78.99;97705.16;5074557;27;45291;-59
2023/01/16 11:57:11;;;;;;;;;0.00;0.00;;;;;6.89;78.92;97714.91;5091504;27;45814;-59
2023/01/16 11:59:46;;;;;;;;;0.00;0.00;;;;;6.89;79.62;97722.81;5075166;27;46137;-58
2023/01/16 12:02:36;;;;;;;;;0.00;0.00;;;;;6.90;78.53;97732.44;5080760;27;45343;-58
2023/01/16 12:08:22;;;;;;;;;2.00;0.00;;;;;6.97;77.59;97754.72;5079056;27;45456;-57
2023/01/16 12:11:05;;;;;;;;;0.00;0.00;;;;;7.06;76.44;97764.50;5078590;27;46216;-58
2023/01/16 12:14:18;;;;;;;;;0.00;0.00;;;;;7.13;76.43;97758.66;5082020;27;45567;-57
2023/01/16 12:16:46;;;;;;;;;0.00;0.00;;;;;7.23;76.28;97796.53;5079281;27;45276;-58
2023/01/16 12:19:59;;;;;;;;;0.00;0.00;;;;;7.25;75.76;97779.56;5078635;27;45556;-59
2023/01/16 12:22:48;;;;;;;;;1.00;1.00;;;;;7.26;76.08;97791.81;5036144;28;45726;-57
2023/01/16 12:25:24;;;;;;;;;0.00;0.00;;;;;7.30;76.64;97802.97;5082194;27;45293;-58
2023/01/16 12:27:59;;;;;;;;;0.00;0.00;;;;;7.34;76.13;97796.44;5078792;27;45372;-59
2023/01/16 12:31:10;;;;;;;;;1.50;0.25;;;;;7.37;75.55;97804.09;5086601;27;45365;-58
2023/01/16 12:33:55;;;;;;;;;2.00;2.00;;;;;7.37;76.35;97825.25;5055294;27;47189;-57
2023/01/16 12:36:51;;;;;;;;;0.00;0.00;;;;;7.35;76.15;97817.47;5081996;27;45535;-58
2023/01/16 12:39:31;;;;;;;;;0.25;0.25;;;;;7.46;76.17;97840.34;5078580;27;45349;-59
2023/01/16 12:44:46;;;;;;;;;1.00;1.00;;;;;7.47;76.85;97863.16;5078055;28;45800;-58
2023/01/16 12:47:12;;;;;;;;;0.25;0.25;;;;;7.43;76.16;97864.41;5091516;27;45464;-58
2023/01/16 12:49:58;;;;;;;;;0.00;0.00;;;;;7.32;76.68;97864.50;5098543;27;45420;-58
2023/01/16 12:52:45;;;;;;;;;1.00;1.00;;;;;7.30;76.80;97871.72;5084702;27;45350;-59
2023/01/16 12:55:37;;;;;;;;;0.25;0.25;;;;;7.25;77.53;97884.47;5078062;27;45267;-58
2023/01/16 12:58:11;;;;;;;;;1.75;1.00;;;;;7.14;76.81;97884.53;5081034;27;45459;-58